createdAt,value
2022-10-23T00:01:52.981Z,101670.50
2022-10-23T00:04:22.107Z,101671.25
2022-10-23T00:06:49.239Z,101674.88
2022-10-23T00:09:17.807Z,101685.28
2022-10-23T00:11:47.936Z,101689.97
2022-10-23T00:14:15.500Z,101689.97
2022-10-23T00:16:41.979Z,101681.03
2022-10-23T00:19:08.456Z,101681.81
2022-10-23T00:21:37.425Z,101682.16
2022-10-23T00:24:04.170Z,101683.03
2022-10-23T00:26:33.280Z,101695.13
2022-10-23T00:28:59.888Z,101681.50
2022-10-23T00:31:29.604Z,101680.00
2022-10-23T00:33:56.075Z,101691.19
2022-10-23T00:36:22.665Z,101692.41
2022-10-23T00:38:49.979Z,101685.00
2022-10-23T00:41:23.960Z,101687.84
2022-10-23T00:44:22.544Z,101690.56
2022-10-23T00:46:49.024Z,101693.59
2022-10-23T00:49:20.410Z,101690.56
2022-10-23T00:51:51.468Z,101691.31
2022-10-23T00:54:24.330Z,101689.81
2022-10-23T00:56:56.711Z,101674.22
2022-10-23T00:59:29.586Z,101687.53
2022-10-23T01:01:56.014Z,101685.25
2022-10-23T01:04:23.881Z,101686.00
2022-10-23T01:07:17.518Z,101682.50
2022-10-23T01:10:03.934Z,101679.47
2022-10-23T01:12:49.189Z,101679.91
2022-10-23T01:15:33.828Z,101680.34
2022-10-23T01:18:06.212Z,101688.53
2022-10-23T01:20:32.986Z,101683.84
2022-10-23T01:23:11.762Z,101682.31
2022-10-23T01:26:15.583Z,101685.78
2022-10-23T01:28:49.875Z,101682.31
2022-10-23T01:31:23.862Z,101692.16
2022-10-23T01:34:00.571Z,101683.97
2022-10-23T01:36:29.779Z,101692.16
2022-10-23T01:39:06.669Z,101692.56
2022-10-23T01:41:39.557Z,101697.13
2022-10-23T01:44:08.682Z,101696.03
2022-10-23T01:46:37.386Z,101686.69
2022-10-23T01:49:07.960Z,101682.44
2022-10-23T01:51:36.504Z,101685.94
2022-10-23T01:54:07.274Z,101694.88
2022-10-23T01:56:36.762Z,101693.31
2022-10-23T01:59:08.425Z,101695.28
2022-10-23T02:01:37.377Z,101688.31
2022-10-23T02:04:08.813Z,101693.00
2022-10-23T02:06:35.387Z,101679.84
2022-10-23T02:09:02.001Z,101685.59
2022-10-23T02:11:30.848Z,101693.31
2022-10-23T02:14:26.778Z,101687.56
2022-10-23T02:17:00.510Z,101676.66
2022-10-23T02:19:38.834Z,101675.94
2022-10-23T02:22:10.905Z,101665.50
2022-10-23T02:24:45.515Z,101663.66
2022-10-23T02:27:15.961Z,101659.69
2022-10-23T02:30:08.087Z,101662.41
2022-10-23T02:32:37.319Z,101660.47
2022-10-23T02:35:04.237Z,101661.69
2022-10-23T02:37:30.727Z,101662.13
2022-10-23T02:39:57.907Z,101662.88
2022-10-23T02:42:36.271Z,101663.66
2022-10-23T02:45:12.019Z,101659.41
2022-10-23T02:47:49.105Z,101657.09
2022-10-23T02:50:36.824Z,101663.28
2022-10-23T02:53:07.488Z,101666.03
2022-10-23T02:55:45.955Z,101667.97
2022-10-23T02:58:22.913Z,101663.00
2022-10-23T03:00:55.894Z,101675.38
2022-10-23T03:03:30.130Z,101677.69
2022-10-23T03:05:56.650Z,101659.81
2022-10-23T03:08:23.221Z,101656.81
2022-10-23T03:10:49.703Z,101662.25
2022-10-23T03:13:16.118Z,101661.47
2022-10-23T03:15:42.875Z,101666.94
2022-10-23T03:18:09.412Z,101659.97
2022-10-23T03:20:35.887Z,101658.44
2022-10-23T03:23:02.588Z,101663.88
2022-10-23T03:25:29.012Z,101658.00
2022-10-23T03:27:55.495Z,101654.53
2022-10-23T03:30:21.951Z,101653.75
2022-10-23T03:32:48.347Z,101661.94
2022-10-23T03:35:14.780Z,101654.19
2022-10-23T03:37:41.385Z,101657.69
2022-10-23T03:40:08.773Z,101661.59
2022-10-23T03:42:35.267Z,101655.41
2022-10-23T03:45:01.918Z,101655.41
2022-10-23T03:47:30.170Z,101652.69
2022-10-23T03:49:56.636Z,101644.50
2022-10-23T03:54:54.386Z,101636.34
2022-10-23T03:57:20.795Z,101645.28
2022-10-23T03:59:47.293Z,101644.94
2022-10-23T04:02:13.717Z,101648.88
2022-10-23T04:04:40.204Z,101648.88
2022-10-23T04:07:06.656Z,101651.59
2022-10-23T04:09:33.114Z,101648.88
2022-10-23T04:11:59.590Z,101651.59
2022-10-23T04:14:26.169Z,101647.34
2022-10-23T04:16:52.640Z,101648.56
2022-10-23T04:19:19.135Z,101657.91
2022-10-23T04:21:45.849Z,101654.47
2022-10-23T04:24:12.399Z,101646.31
2022-10-23T04:26:38.822Z,101640.84
2022-10-23T04:29:05.427Z,101651.75
2022-10-23T04:31:31.960Z,101649.44
2022-10-23T04:36:24.927Z,101657.19
2022-10-23T04:38:51.330Z,101644.44
2022-10-23T04:41:17.730Z,101636.72
2022-10-23T04:43:44.249Z,101630.53
2022-10-23T04:46:10.718Z,101643.59
2022-10-23T04:48:37.139Z,101634.00
2022-10-23T04:51:05.966Z,101632.06
2022-10-23T04:53:32.871Z,101630.06
2022-10-23T04:56:00.279Z,101631.28
2022-10-23T04:58:28.163Z,101626.25
2022-10-23T05:00:55.281Z,101625.50
2022-10-23T05:03:22.882Z,101625.50
2022-10-23T05:05:49.401Z,101630.19
2022-10-23T05:08:18.044Z,101643.78
2022-10-23T05:10:45.048Z,101630.19
2022-10-23T05:13:11.477Z,101615.53
2022-10-23T05:15:37.939Z,101631.84
2022-10-23T05:18:12.787Z,101629.53
2022-10-23T05:20:40.337Z,101624.09
2022-10-23T05:23:11.172Z,101626.81
2022-10-23T05:25:37.667Z,101617.94
2022-10-23T05:28:04.169Z,101615.22
2022-10-23T05:30:33.074Z,101608.53
2022-10-23T05:33:01.445Z,101613.22
2022-10-23T05:35:29.544Z,101610.50
2022-10-23T05:37:58.947Z,101617.16
2022-10-23T05:40:25.891Z,101610.97
2022-10-23T05:42:52.374Z,101604.75
2022-10-23T05:45:18.813Z,101612.16
2022-10-23T05:47:46.102Z,101608.69
2022-10-23T05:50:12.735Z,101614.56
2022-10-23T05:52:39.156Z,101617.28
2022-10-23T05:55:06.028Z,101615.75
2022-10-23T05:57:33.731Z,101621.63
2022-10-23T06:00:00.298Z,101616.84
2022-10-23T06:02:26.810Z,101621.97
2022-10-23T06:04:53.363Z,101626.63
2022-10-23T06:07:25.734Z,101636.00
2022-10-23T06:09:52.971Z,101627.84
2022-10-23T06:12:20.927Z,101636.00
2022-10-23T06:14:48.194Z,101642.63
2022-10-23T06:17:15.127Z,101637.19
2022-10-23T06:19:41.548Z,101635.25
2022-10-23T06:22:08.067Z,101635.69
2022-10-23T06:24:34.475Z,101629.03
2022-10-23T06:27:00.964Z,101632.97
2022-10-23T06:29:27.388Z,101636.88
2022-10-23T06:31:53.830Z,101636.13
2022-10-23T06:34:20.245Z,101641.56
2022-10-23T06:36:46.663Z,101638.84
2022-10-23T06:39:13.198Z,101637.63
2022-10-23T06:41:42.031Z,101636.00
2022-10-23T06:44:10.197Z,101626.75
2022-10-23T06:46:36.744Z,101626.00
2022-10-23T06:49:03.558Z,101630.34
2022-10-23T06:51:29.998Z,101624.47
2022-10-23T06:53:57.255Z,101633.06
2022-10-23T06:56:25.268Z,101629.63
2022-10-23T06:58:51.796Z,101625.34
2022-10-23T07:01:18.372Z,101630.03
2022-10-23T07:03:45.058Z,101628.84
2022-10-23T07:06:11.962Z,101632.75
2022-10-23T07:08:38.863Z,101631.88
2022-10-23T07:11:10.325Z,101631.13
2022-10-23T07:13:38.623Z,101630.34
2022-10-23T07:16:17.346Z,101630.34
2022-10-23T07:18:44.587Z,101629.63
2022-10-23T07:21:11.303Z,101619.16
2022-10-23T07:23:37.995Z,101629.25
2022-10-23T07:26:15.640Z,101633.41
2022-10-23T07:28:43.936Z,101625.69
2022-10-23T07:31:11.504Z,101621.00
2022-10-23T07:33:38.147Z,101623.28
2022-10-23T07:36:06.670Z,101622.19
2022-10-23T07:38:33.768Z,101627.63
2022-10-23T07:41:00.685Z,101624.91
2022-10-23T07:43:27.719Z,101623.72
2022-10-23T07:45:54.445Z,101626.44
2022-10-23T07:48:21.802Z,101612.84
2022-10-23T07:50:48.301Z,101618.28
2022-10-23T07:53:20.783Z,101619.78
2022-10-23T07:56:02.140Z,101621.00
2022-10-23T07:58:29.955Z,101634.59
2022-10-23T08:14:19.654Z,101627.50
2022-10-23T08:16:46.070Z,101624.47
2022-10-23T08:19:12.570Z,101617.41
2022-10-23T08:21:39.186Z,101614.25
2022-10-23T08:24:06.236Z,101609.56
2022-10-23T08:26:32.722Z,101604.88
2022-10-23T08:28:59.896Z,101600.84
2022-10-23T08:31:26.609Z,101606.94
2022-10-23T08:33:53.171Z,101602.84
2022-10-23T08:36:23.131Z,101611.22
2022-10-23T08:38:50.110Z,101610.66
2022-10-23T08:41:24.245Z,101603.13
2022-10-23T08:43:58.306Z,101590.59
2022-10-23T08:46:30.016Z,101595.00
2022-10-23T08:49:20.524Z,101589.47
2022-10-23T08:51:50.404Z,101592.69
2022-10-23T08:54:19.854Z,101599.97
2022-10-23T08:56:58.784Z,101608.78
2022-10-23T08:59:40.467Z,101613.31
2022-10-23T09:02:29.938Z,101605.75
2022-10-23T09:04:58.292Z,101609.56
2022-10-23T09:07:56.008Z,101602.50
2022-10-23T09:10:45.989Z,101598.09
2022-10-23T09:13:26.197Z,101592.22
2022-10-23T09:16:03.701Z,101594.94
2022-10-23T09:18:31.214Z,101593.28
2022-10-23T09:20:57.661Z,101589.81
2022-10-23T09:23:24.909Z,101595.53
2022-10-23T09:25:57.614Z,101589.66
2022-10-23T09:28:49.480Z,101584.63
2022-10-23T09:31:16.618Z,101585.00
2022-10-23T09:33:58.343Z,101574.84
2022-10-23T09:36:29.064Z,101576.34
2022-10-23T09:39:01.612Z,101582.25
2022-10-23T09:41:33.744Z,101587.25
2022-10-23T09:44:20.668Z,101579.06
2022-10-23T09:49:20.699Z,101581.34
2022-10-23T09:52:09.773Z,101573.16
2022-10-23T09:54:45.462Z,101571.66
2022-10-23T09:57:17.756Z,101576.34
2022-10-23T09:59:44.443Z,101569.41
2022-10-23T10:02:31.824Z,101559.72
2022-10-23T10:04:58.915Z,101567.09
2022-10-23T10:07:30.273Z,101567.56
2022-10-23T10:09:58.814Z,101560.13
2022-10-23T10:12:37.530Z,101565.28
2022-10-23T10:15:34.737Z,101567.25
2022-10-23T10:18:39.041Z,101559.53
2022-10-23T10:21:15.668Z,101551.03
2022-10-23T10:24:18.871Z,101552.25
2022-10-23T10:27:00.900Z,101552.25
2022-10-23T10:29:33.044Z,101546.50
2022-10-23T10:32:05.998Z,101547.41
2022-10-23T10:34:51.464Z,101538.91
2022-10-23T10:37:24.619Z,101527.25
2022-10-23T10:40:02.877Z,101522.16
2022-10-23T10:42:56.072Z,101515.91
2022-10-23T10:45:26.956Z,101508.94
2022-10-23T10:48:21.029Z,101510.47
2022-10-23T10:50:59.665Z,101507.75
2022-10-23T10:53:38.124Z,101513.19
2022-10-23T10:59:02.555Z,101509.28
2022-10-23T11:01:42.578Z,101506.84
2022-10-23T11:04:22.198Z,101512.31
2022-10-23T11:06:51.998Z,101513.06
2022-10-23T11:09:24.313Z,101491.59
2022-10-23T11:11:50.930Z,101484.50
2022-10-23T11:14:19.623Z,101486.00
2022-10-23T11:16:49.318Z,101481.63
2022-10-23T11:19:27.901Z,101468.03
2022-10-23T11:22:09.955Z,101453.94
2022-10-23T11:24:53.371Z,101451.19
2022-10-23T11:27:42.529Z,101448.81
2022-10-23T11:30:27.518Z,101440.66
2022-10-23T11:33:05.994Z,101443.66
2022-10-23T11:36:17.041Z,101438.19
2022-10-23T11:38:53.716Z,101431.56
2022-10-23T11:41:26.706Z,101437.00
2022-10-23T11:43:57.150Z,101437.44
2022-10-23T11:46:23.541Z,101432.47
2022-10-23T11:48:50.422Z,101425.47
2022-10-23T11:51:36.559Z,101423.56
2022-10-23T11:54:12.037Z,101412.66
2022-10-23T11:56:50.001Z,101411.88
2022-10-23T11:59:21.531Z,101407.63
2022-10-23T12:01:51.619Z,101410.34
2022-10-23T12:04:24.098Z,101400.69
2022-10-23T12:06:59.868Z,101410.34
2022-10-23T12:09:28.259Z,101401.91
2022-10-23T12:12:10.072Z,101394.50
2022-10-23T12:14:43.987Z,101396.47
2022-10-23T12:17:22.324Z,101398.44
2022-10-23T12:19:49.881Z,101395.69
2022-10-23T12:22:17.005Z,101387.97
2022-10-23T12:24:57.879Z,101387.66
2022-10-23T12:27:53.356Z,101382.22
2022-10-23T12:30:23.544Z,101374.50
2022-10-23T12:32:59.001Z,101378.44
2022-10-23T12:35:48.992Z,101369.50
2022-10-23T12:38:21.654Z,101363.75
2022-10-23T12:41:13.500Z,101359.53
2022-10-23T12:43:42.551Z,101359.53
2022-10-23T12:46:17.662Z,101353.34
2022-10-23T12:48:50.308Z,101340.16
2022-10-23T12:51:24.191Z,101332.44
2022-10-23T12:53:50.961Z,101338.34
2022-10-23T12:56:18.111Z,101344.56
2022-10-23T12:59:04.074Z,101337.56
2022-10-23T13:01:33.042Z,101322.03
2022-10-23T13:04:07.903Z,101321.69
2022-10-23T13:06:34.739Z,101322.91
2022-10-23T13:09:03.131Z,101316.25
2022-10-23T13:11:30.814Z,101298.88
2022-10-23T13:13:57.987Z,101301.59
2022-10-23T13:16:26.010Z,101285.56
2022-10-23T13:18:54.364Z,101277.84
2022-10-23T13:21:23.862Z,101276.31
2022-10-23T13:23:51.683Z,101266.22
2022-10-23T13:26:33.629Z,101269.84
2022-10-23T13:29:08.739Z,101269.69
2022-10-23T13:31:36.532Z,101257.72
2022-10-23T13:34:04.729Z,101260.47
2022-10-23T13:36:35.969Z,101263.63
2022-10-23T13:39:10.239Z,101261.22
2022-10-23T13:41:46.884Z,101255.91
2022-10-23T13:44:16.776Z,101245.03
2022-10-23T13:46:44.048Z,101247.00
2022-10-23T13:49:10.576Z,101244.28
2022-10-23T13:51:42.689Z,101236.09
2022-10-23T13:54:15.753Z,101225.97
2022-10-23T13:56:42.179Z,101226.44
2022-10-23T13:59:10.741Z,101212.50
2022-10-23T14:01:37.329Z,101208.13
2022-10-23T14:04:05.533Z,101203.13
2022-10-23T14:06:32.798Z,101212.50
2022-10-23T14:09:01.694Z,101201.16
2022-10-23T14:11:28.183Z,101194.69
2022-10-23T14:13:54.609Z,101198.91
2022-10-23T14:16:21.645Z,101209.78
2022-10-23T14:18:48.332Z,101204.34
2022-10-23T14:21:19.890Z,101200.13
2022-10-23T14:23:47.714Z,101198.59
2022-10-23T14:26:17.956Z,101194.69
2022-10-23T14:28:44.628Z,101191.97
2022-10-23T14:31:13.129Z,101189.69
2022-10-23T14:33:40.059Z,101186.97
2022-10-23T14:36:07.575Z,101186.19
2022-10-23T14:38:34.258Z,101184.25
2022-10-23T14:41:01.205Z,101181.50
2022-10-23T14:43:27.663Z,101184.25
2022-10-23T14:45:54.088Z,101177.28
2022-10-23T14:48:20.569Z,101184.69
2022-10-23T14:50:49.377Z,101183.03
2022-10-23T14:53:16.087Z,101184.25
2022-10-23T14:55:42.541Z,101180.47
2022-10-23T14:58:09.011Z,101180.47
2022-10-23T15:00:35.476Z,101162.19
2022-10-23T15:03:01.926Z,101153.28
2022-10-23T15:05:28.352Z,101147.81
2022-10-23T15:07:56.184Z,101145.09
2022-10-23T15:10:22.644Z,101136.59
2022-10-23T15:12:49.321Z,101138.56
2022-10-23T15:15:15.848Z,101137.81
2022-10-23T15:17:42.379Z,101133.88
2022-10-23T15:20:09.361Z,101140.53
2022-10-23T15:22:35.861Z,101148.69
2022-10-23T15:25:02.332Z,101139.81
2022-10-23T15:27:28.815Z,101132.53
2022-10-23T15:29:55.343Z,101130.56
2022-10-23T15:32:21.785Z,101131.31
2022-10-23T15:34:49.658Z,101122.88
2022-10-23T15:37:16.292Z,101129.81
2022-10-23T15:39:43.102Z,101136.75
2022-10-23T15:42:10.577Z,101132.53
2022-10-23T15:44:39.436Z,101119.41
2022-10-23T15:47:05.887Z,101112.44
2022-10-23T15:49:32.670Z,101105.78
2022-10-23T15:51:59.465Z,101100.81
2022-10-23T15:54:29.239Z,101098.50
2022-10-23T15:56:58.394Z,101099.25
2022-10-23T15:59:25.835Z,101091.84
2022-10-23T16:01:52.750Z,101097.78
2022-10-23T16:04:20.107Z,101090.81
2022-10-23T16:06:46.721Z,101093.56
2022-10-23T16:09:13.976Z,101099.44
2022-10-23T16:11:41.846Z,101101.72
2022-10-23T16:14:10.583Z,101093.56
2022-10-23T16:16:37.101Z,101075.41
2022-10-23T16:19:04.603Z,101070.72
2022-10-23T16:21:36.203Z,101067.25
2022-10-23T16:24:05.101Z,101060.28
2022-10-23T16:26:32.243Z,101055.63
2022-10-23T16:29:04.181Z,101054.84
2022-10-23T16:31:30.700Z,101054.84
2022-10-23T16:34:01.641Z,101036.25
2022-10-23T16:36:29.383Z,101032.78
2022-10-23T16:38:59.027Z,101027.34
2022-10-23T16:41:25.408Z,101025.38
2022-10-23T16:43:51.918Z,101020.41
2022-10-23T16:46:20.770Z,101021.91
2022-10-23T16:48:48.008Z,101016.91
2022-10-23T16:51:17.054Z,101008.75
2022-10-23T16:53:44.306Z,101012.22
2022-10-23T16:56:13.044Z,101014.97
2022-10-23T16:58:42.376Z,101010.31
2022-10-23T17:01:18.882Z,101005.28
2022-10-23T17:03:48.508Z,101002.56
2022-10-23T17:06:18.075Z,101010.31
2022-10-23T17:08:44.738Z,101013.91
2022-10-23T17:11:19.923Z,100999.53
2022-10-23T17:13:53.631Z,101002.25
2022-10-23T17:16:26.689Z,101005.75
2022-10-23T17:18:53.135Z,100998.81
2022-10-23T17:21:22.296Z,100987.94
2022-10-23T17:23:49.359Z,100974.34
2022-10-23T17:26:21.655Z,100971.63
2022-10-23T17:28:48.235Z,100983.69
2022-10-23T17:31:21.005Z,100982.91
2022-10-23T17:33:47.964Z,100980.66
2022-10-23T17:36:16.375Z,100975.81
2022-10-23T17:38:43.646Z,100968.56
2022-10-23T17:41:12.196Z,100975.22
2022-10-23T17:43:39.125Z,100974.75
2022-10-23T17:46:07.161Z,100971.00
2022-10-23T17:48:35.003Z,100956.94
2022-10-23T17:51:07.372Z,100945.78
2022-10-23T17:53:38.299Z,100943.81
2022-10-23T17:56:06.762Z,100936.09
2022-10-23T17:58:34.109Z,100938.38
2022-10-23T18:01:12.886Z,100925.03
2022-10-23T18:03:39.885Z,100922.78
2022-10-23T18:06:15.991Z,100920.53
2022-10-23T18:08:43.856Z,100918.25
2022-10-23T18:11:32.367Z,100922.19
2022-10-23T18:16:30.969Z,100910.84
2022-10-23T18:18:59.396Z,100915.53
2022-10-23T18:21:27.521Z,100908.88
2022-10-23T18:23:54.249Z,100910.84
2022-10-23T18:26:23.510Z,100916.28
2022-10-23T18:28:51.815Z,100924.44
2022-10-23T18:31:19.857Z,100930.34
2022-10-23T18:33:47.244Z,100923.44
2022-10-23T18:36:20.981Z,100925.06
2022-10-23T18:38:48.507Z,100925.38
2022-10-23T18:41:17.978Z,100914.94
2022-10-23T18:43:44.814Z,100927.63
2022-10-23T18:46:14.738Z,100926.13
2022-10-23T18:48:42.705Z,100929.13
2022-10-23T18:51:17.843Z,100929.31
2022-10-23T18:53:46.698Z,100926.13
2022-10-23T18:56:22.335Z,100933.81
2022-10-23T18:58:58.011Z,100941.22
2022-10-23T19:01:27.077Z,100932.78
2022-10-23T19:06:28.184Z,100928.53
2022-10-23T19:08:54.652Z,100939.25
2022-10-23T19:11:23.488Z,100939.41
2022-10-23T19:13:50.176Z,100942.63
2022-10-23T19:16:20.999Z,100935.94
2022-10-23T19:18:51.845Z,100932.50
2022-10-23T19:21:21.465Z,100916.47
2022-10-23T19:23:48.507Z,100910.72
2022-10-23T19:26:15.706Z,100928.09
2022-10-23T19:28:45.433Z,100917.66
2022-10-23T19:31:12.855Z,100915.13
2022-10-23T19:33:39.644Z,100922.06
2022-10-23T19:36:11.211Z,100908.47
2022-10-23T19:38:45.932Z,100924.34
2022-10-23T19:41:12.445Z,100930.69
2022-10-23T19:43:38.920Z,100927.50
2022-10-23T19:46:09.316Z,100929.78
2022-10-23T19:48:42.301Z,100930.22
2022-10-23T19:51:09.458Z,100930.22
2022-10-23T19:53:36.307Z,100932.50
2022-10-23T19:56:06.555Z,100927.97
2022-10-23T19:58:33.428Z,100924.03
2022-10-23T20:01:10.333Z,100927.78
2022-10-23T20:03:37.843Z,100925.69
2022-10-23T20:06:04.524Z,100917.09
2022-10-23T20:08:32.782Z,100917.84
2022-10-23T20:11:01.725Z,100921.75
2022-10-23T20:13:28.168Z,100932.63
2022-10-23T20:15:55.272Z,100942.78
2022-10-23T20:18:21.929Z,100939.16
2022-10-23T20:20:48.454Z,100946.22
2022-10-23T20:23:14.880Z,100946.22
2022-10-23T20:25:41.293Z,100949.88
2022-10-23T20:28:10.198Z,100946.22
2022-10-23T20:30:41.565Z,100942.78
2022-10-23T20:33:08.062Z,100935.66
2022-10-23T20:35:43.541Z,100927.66
2022-10-23T20:38:10.522Z,100923.72
2022-10-23T20:40:37.361Z,100936.88
2022-10-23T20:43:04.007Z,100924.47
2022-10-23T20:45:30.493Z,100921.47
2022-10-23T20:47:57.033Z,100917.25
2022-10-23T20:50:23.897Z,100927.19
2022-10-23T20:52:50.818Z,100919.81
2022-10-23T20:55:17.569Z,100924.47
2022-10-23T20:57:44.281Z,100918.75
2022-10-23T21:00:11.514Z,100922.69
2022-10-23T21:02:38.030Z,100910.59
2022-10-23T21:05:04.909Z,100917.53
2022-10-23T21:07:31.325Z,100922.97
2022-10-23T21:09:57.741Z,100921.47
2022-10-23T21:12:24.154Z,100921.75
2022-10-23T21:14:50.688Z,100934.31
2022-10-23T21:17:18.069Z,100910.59
2022-10-23T21:19:44.605Z,100909.53
2022-10-23T21:22:11.102Z,100909.09
2022-10-23T21:24:37.560Z,100907.88
2022-10-23T21:27:04.080Z,100904.41
2022-10-23T21:29:30.558Z,100911.34
2022-10-23T21:31:59.496Z,100910.88
2022-10-23T21:34:26.924Z,100906.66
2022-10-23T21:37:12.620Z,100910.28
2022-10-23T21:39:41.079Z,100897.91
2022-10-23T21:42:07.783Z,100903.34
2022-10-23T21:44:34.166Z,100892.75
2022-10-23T21:47:00.762Z,100891.72
2022-10-23T21:49:27.177Z,100902.59
2022-10-23T21:51:54.944Z,100912.72
2022-10-23T21:54:21.812Z,100907.28
2022-10-23T21:56:50.436Z,100912.25
2022-10-23T21:59:19.706Z,100926.59
2022-10-23T22:01:47.994Z,100921.16
2022-10-23T22:04:17.383Z,100898.66
2022-10-23T22:06:45.722Z,100893.97
2022-10-23T22:09:14.765Z,100893.97
2022-10-23T22:11:41.637Z,100878.56
2022-10-23T22:14:08.202Z,100861.06
2022-10-23T22:16:34.863Z,100837.78
2022-10-23T22:19:01.513Z,100840.34
2022-10-23T22:21:29.729Z,100837.03
2022-10-23T22:23:58.025Z,100853.66
2022-10-23T22:26:28.815Z,100838.09
2022-10-23T22:28:58.096Z,100826.91
2022-10-23T22:31:30.800Z,100809.09
2022-10-23T22:33:58.806Z,100798.97
2022-10-23T22:36:25.797Z,100782.66
2022-10-23T22:38:53.206Z,100764.38
2022-10-23T22:41:19.972Z,100779.47
2022-10-23T22:43:46.490Z,100776.75
2022-10-23T22:46:18.200Z,100783.41
2022-10-23T22:48:45.671Z,100774.94
2022-10-23T22:51:14.493Z,100784.91
2022-10-23T22:53:41.235Z,100777.22
2022-10-23T22:56:09.371Z,100785.06
2022-10-23T22:58:35.893Z,100798.50
2022-10-23T23:01:12.133Z,100800.22
2022-10-23T23:03:38.973Z,100818.00
2022-10-23T23:06:06.929Z,100817.25
2022-10-23T23:08:34.578Z,100823.91
2022-10-23T23:11:01.807Z,100823.91
2022-10-23T23:13:28.375Z,100822.69
2022-10-23T23:15:55.816Z,100820.25
2022-10-23T23:18:22.316Z,100829.34
2022-10-23T23:20:49.348Z,100829.34
2022-10-23T23:23:15.865Z,100830.13
2022-10-23T23:25:50.111Z,100842.63
2022-10-23T23:28:18.957Z,100850.78
2022-10-23T23:33:19.416Z,100865.88
2022-10-23T23:35:48.055Z,100867.09
2022-10-23T23:38:14.646Z,100876.75
2022-10-23T23:40:41.066Z,100880.69
2022-10-23T23:43:07.494Z,100882.97
2022-10-23T23:45:33.897Z,100876.75
2022-10-23T23:48:00.395Z,100879.78
2022-10-23T23:50:27.959Z,100876.50
2022-10-23T23:52:54.474Z,100872.28
2022-10-23T23:55:21.070Z,100880.44
2022-10-23T23:57:47.611Z,100880.44
